Time;durP1;ratioP1;P1;durP2;ratioP2;P2;SDS_P1;SDS_P2;PMS_P1;PMS_P2;Temp;Humidity;BMP_temperature;BMP_pressure;BME280_temperature;BME280_humidity;BME280_pressure;Samples;Min_cycle;Max_cycle;Signal;HPM_P1;HPM_P2
2023/03/01 00:02:25;;;;;;;12.10;7.53;;;;;;;-3.10;100.00;102167.50;6226587;28;20041;-86
2023/03/01 00:05:27;;;;;;;13.20;7.80;;;;;;;-3.11;100.00;102160.72;6226874;28;20048;-86
2023/03/01 00:08:30;;;;;;;10.18;7.93;;;;;;;-3.16;100.00;102159.88;6231125;28;20487;-86
2023/03/01 00:11:33;;;;;;;11.98;7.85;;;;;;;-3.20;100.00;102160.72;6229188;28;20080;-86
2023/03/01 00:14:35;;;;;;;11.35;8.10;;;;;;;-3.22;100.00;102165.75;6229221;28;20034;-86
2023/03/01 00:17:37;;;;;;;13.48;8.25;;;;;;;-3.23;100.00;102169.13;6220602;28;20042;-86
2023/03/01 00:20:39;;;;;;;13.85;8.45;;;;;;;-3.28;100.00;102171.66;6223074;28;20052;-86
2023/03/01 00:23:40;;;;;;;13.10;7.90;;;;;;;-3.30;100.00;102172.50;6212106;28;20132;-86
2023/03/01 00:26:42;;;;;;;13.07;8.27;;;;;;;-3.28;100.00;102165.72;6216130;28;20046;-86
2023/03/01 00:29:44;;;;;;;13.55;8.10;;;;;;;-3.30;100.00;102180.09;6227932;28;20041;-86
2023/03/01 00:32:46;;;;;;;18.33;10.70;;;;;;;-3.33;100.00;102173.31;6217959;28;20083;-86
2023/03/01 00:35:48;;;;;;;24.48;11.60;;;;;;;-3.38;100.00;102180.03;6216030;28;20045;-86
2023/03/01 00:38:49;;;;;;;18.00;10.15;;;;;;;-3.38;100.00;102169.91;6215804;28;20065;-86
2023/03/01 00:41:51;;;;;;;20.80;10.80;;;;;;;-3.37;100.00;102165.69;6218184;28;20045;-86
2023/03/01 00:44:53;;;;;;;19.45;11.00;;;;;;;-3.44;100.00;102163.97;6226886;28;20072;-86
2023/03/01 00:47:54;;;;;;;19.90;11.85;;;;;;;-3.43;100.00;102163.13;6228506;28;20594;-86
2023/03/01 00:50:56;;;;;;;18.05;10.65;;;;;;;-3.42;100.00;102157.22;6226728;28;20593;-86
2023/03/01 00:54:02;;;;;;;17.35;10.35;;;;;;;-3.43;100.00;102151.28;6226987;28;20042;-86
2023/03/01 00:57:03;;;;;;;18.35;10.85;;;;;;;-3.49;100.00;102152.13;6218970;28;20057;-86
2023/03/01 01:00:06;;;;;;;16.98;10.10;;;;;;;-3.53;100.00;102159.69;6229420;28;20038;-86
2023/03/01 01:03:08;;;;;;;15.55;9.20;;;;;;;-3.54;100.00;102160.53;6213377;28;20050;-86
2023/03/01 01:06:15;;;;;;;16.75;9.32;;;;;;;-3.53;100.00;102154.63;6229992;28;20048;-86
2023/03/01 01:09:17;;;;;;;14.77;8.77;;;;;;;-3.55;100.00;102156.28;6225739;28;20531;-86
2023/03/01 01:12:19;;;;;;;13.52;9.00;;;;;;;-3.61;100.00;102154.59;6222672;28;20048;-86
2023/03/01 01:15:21;;;;;;;12.80;8.98;;;;;;;-3.60;100.00;102155.41;6227251;28;20053;-86
2023/03/01 01:18:22;;;;;;;14.40;8.85;;;;;;;-3.64;100.00;102146.13;6221224;28;20052;-86
2023/03/01 01:21:25;;;;;;;12.73;8.10;;;;;;;-3.63;100.00;102158.78;6220860;28;20052;-86
2023/03/01 01:24:27;;;;;;;13.65;8.50;;;;;;;-3.59;100.00;102150.38;6222325;28;20045;-86
2023/03/01 01:27:30;;;;;;;13.35;8.40;;;;;;;-3.60;100.00;102150.34;6226692;28;20049;-86
2023/03/01 01:30:31;;;;;;;12.63;7.65;;;;;;;-3.58;100.00;102139.41;6221310;28;21047;-86
2023/03/01 01:33:34;;;;;;;16.33;9.65;;;;;;;-3.59;100.00;102140.25;6220627;28;20046;-86
2023/03/01 01:36:36;;;;;;;14.95;8.70;;;;;;;-3.61;100.00;102141.09;6200632;28;20045;-86
2023/03/01 01:39:37;;;;;;;15.20;7.80;;;;;;;-3.62;100.00;102134.34;6217499;28;20049;-86
2023/03/01 01:42:42;;;;;;;11.73;8.13;;;;;;;-3.64;100.00;102134.31;6218077;28;20838;-86
2023/03/01 01:45:44;;;;;;;14.45;8.02;;;;;;;-3.62;100.00;102126.75;6225563;28;20088;-86
2023/03/01 01:48:55;;;;;;;15.48;8.43;;;;;;;-3.62;100.00;102125.06;6234539;28;20056;-86
2023/03/01 01:52:10;;;;;;;13.77;7.78;;;;;;;-3.60;100.00;102125.94;6215814;28;20037;-86
2023/03/01 01:55:16;;;;;;;11.25;7.45;;;;;;;-3.64;100.00;102128.44;6235090;28;20189;-86
2023/03/01 01:58:21;;;;;;;15.57;7.50;;;;;;;-3.66;100.00;102125.03;6220365;28;20419;-87
2023/03/01 02:01:23;;;;;;;12.07;8.25;;;;;;;-3.59;100.00;102131.81;6221268;28;20589;-86
2023/03/01 02:04:25;;;;;;;10.23;7.30;;;;;;;-3.59;100.00;102130.13;6219325;28;20605;-86
2023/03/01 02:07:27;;;;;;;11.93;7.40;;;;;;;-3.59;100.00;102122.53;6221076;28;20069;-86
2023/03/01 02:10:33;;;;;;;13.43;7.63;;;;;;;-3.58;100.00;102123.38;6221580;28;20037;-86
2023/03/01 02:13:35;;;;;;;14.38;7.90;;;;;;;-3.60;100.00;102120.00;6213856;28;20742;-87
2023/03/01 02:16:37;;;;;;;13.02;7.55;;;;;;;-3.62;100.00;102124.22;6231003;28;20129;-86
2023/03/01 02:19:57;;;;;;;10.98;6.85;;;;;;;-3.62;100.00;102119.16;6220207;28;20420;-86
2023/03/01 02:23:00;;;;;;;10.18;7.18;;;;;;;-3.61;100.00;102108.19;6225043;28;20067;-87
2023/03/01 02:26:11;;;;;;;11.57;7.10;;;;;;;-3.70;100.00;102112.38;6221652;28;20042;-86
2023/03/01 02:29:12;;;;;;;;;;;;;;;-3.77;100.00;102107.28;6221624;28;20050;-86
2023/03/01 02:32:24;;;;;;;10.40;7.30;;;;;;;-3.77;100.00;102108.09;6235991;28;19929;-86
2023/03/01 02:35:26;;;;;;;13.30;7.22;;;;;;;-3.81;100.00;102106.38;6231920;28;20049;-86
2023/03/01 02:38:29;;;;;;;11.48;7.22;;;;;;;-3.84;100.00;102113.13;6219685;28;20048;-86
2023/03/01 02:41:35;;;;;;;13.73;8.25;;;;;;;-3.87;100.00;102105.53;6226592;28;20051;-87
2023/03/01 02:44:36;;;;;;;10.95;7.38;;;;;;;-3.85;100.00;102101.28;6227104;28;20061;-87
2023/03/01 02:47:38;;;;;;;13.10;7.72;;;;;;;-3.86;100.00;102095.41;6216184;28;20336;-87
2023/03/01 02:50:53;;;;;;;9.32;6.97;;;;;;;-3.92;100.00;102088.63;6222798;28;20049;-86
2023/03/01 02:54:23;;;;;;;11.55;7.22;;;;;;;-3.99;100.00;102084.38;6226160;28;20037;-86
2023/03/01 02:57:27;;;;;;;12.30;7.45;;;;;;;-3.99;100.00;102083.53;6231189;28;20053;-87
2023/03/01 03:00:39;;;;;;;13.27;7.70;;;;;;;-4.01;100.00;102080.97;6227709;28;20176;-86
2023/03/01 03:03:42;;;;;;;11.52;7.10;;;;;;;-3.97;100.00;102079.31;6213093;28;20771;-86
2023/03/01 03:06:47;;;;;;;20.75;11.75;;;;;;;-3.92;100.00;102075.13;6213193;28;20042;-86
2023/03/01 03:09:48;;;;;;;38.67;24.67;;;;;;;-3.87;100.00;102077.69;6233681;28;20388;-86
2023/03/01 03:12:56;;;;;;;25.08;15.63;;;;;;;-3.80;100.00;102071.81;6233159;28;20053;-86
2023/03/01 03:15:58;;;;;;;21.02;12.63;;;;;;;-3.80;100.00;102065.09;6241655;28;20594;-86
2023/03/01 03:19:04;;;;;;;11.68;8.18;;;;;;;-3.87;100.00;102060.00;6224297;28;20053;-86
2023/03/01 03:22:08;;;;;;;13.57;8.75;;;;;;;-3.92;100.00;102059.97;6221675;28;20539;-86
2023/03/01 03:25:10;;;;;;;11.95;7.93;;;;;;;-3.94;100.00;102054.88;6225440;28;20053;-86
2023/03/01 03:28:12;;;;;;;13.75;8.07;;;;;;;-3.98;100.00;102053.16;6236214;28;20049;-86
2023/03/01 03:31:16;;;;;;;11.35;7.72;;;;;;;-4.00;100.00;102062.44;6232971;28;20080;-86
2023/03/01 03:34:18;;;;;;;11.90;7.55;;;;;;;-4.10;100.00;102060.69;6215159;28;20049;-86
2023/03/01 03:40:42;;;;;;;12.10;7.38;;;;;;;-4.14;100.00;102057.28;6224759;28;20054;-86
2023/03/01 03:43:44;;;;;;;12.25;7.57;;;;;;;-4.11;100.00;102053.94;6213807;28;20049;-86
2023/03/01 03:46:47;;;;;;;10.55;7.55;;;;;;;-4.08;100.00;102055.63;6223348;28;20044;-86
2023/03/01 03:49:49;;;;;;;13.23;7.03;;;;;;;-4.09;100.00;102057.31;6218490;28;20503;-86
2023/03/01 03:52:50;;;;;;;11.60;6.85;;;;;;;-4.12;100.00;102049.72;6228985;28;20046;-86
2023/03/01 03:55:53;;;;;;;11.20;7.63;;;;;;;-4.14;100.00;102047.19;6227890;28;20049;-86
2023/03/01 03:58:55;;;;;;;11.85;6.45;;;;;;;-4.12;100.00;102054.78;6215565;28;20030;-86
2023/03/01 04:01:56;;;;;;;10.60;6.65;;;;;;;-4.13;100.00;102053.91;6218318;28;20044;-86
2023/03/01 04:04:58;;;;;;;14.85;6.93;;;;;;;-4.13;100.00;102058.97;6216147;28;20037;-86
2023/03/01 04:08:03;;;;;;;12.05;7.38;;;;;;;-4.17;100.00;102056.44;6223469;28;20084;-86
2023/03/01 04:14:27;;;;;;;10.65;6.82;;;;;;;-4.19;100.00;102053.06;6224067;28;20041;-86
2023/03/01 04:17:29;;;;;;;11.13;6.72;;;;;;;-4.21;100.00;102052.19;6222495;28;20498;-86
2023/03/01 04:20:34;;;;;;;11.75;6.53;;;;;;;-4.21;100.00;102062.31;6229574;28;20591;-86
2023/03/01 04:23:37;;;;;;;11.20;6.68;;;;;;;-4.24;100.00;102068.19;6230180;28;20128;-86
2023/03/01 04:26:39;;;;;;;9.95;6.05;;;;;;;-4.23;100.00;102064.81;6230911;28;20044;-86
2023/03/01 04:29:40;;;;;;;11.02;7.25;;;;;;;-4.21;100.00;102069.88;6229760;28;20041;-86
2023/03/01 04:32:42;;;;;;;10.27;7.05;;;;;;;-4.23;100.00;102062.28;6227213;28;20065;-86
2023/03/01 04:35:45;;;;;;;10.52;7.05;;;;;;;-4.25;100.00;102066.47;6231354;28;20045;-86
2023/03/01 04:38:53;;;;;;;9.30;6.97;;;;;;;-4.25;100.00;102076.59;6229969;28;20273;-86
2023/03/01 04:41:54;;;;;;;13.23;7.68;;;;;;;-4.33;100.00;102073.16;6224922;28;20044;-86
2023/03/01 04:44:56;;;;;;;10.32;7.35;;;;;;;-4.26;100.00;102069.84;6227541;28;20427;-86
2023/03/01 04:47:58;;;;;;;13.05;7.55;;;;;;;-4.26;100.00;102066.47;6223691;28;20042;-86
2023/03/01 04:51:00;;;;;;;11.35;7.35;;;;;;;-4.23;100.00;102071.56;6220834;28;20045;-86
2023/03/01 04:54:02;;;;;;;13.30;7.35;;;;;;;-4.25;100.00;102063.09;6228033;28;20200;-86
2023/03/01 04:57:03;;;;;;;12.82;7.25;;;;;;;-4.23;100.00;102058.91;6232001;28;20045;-86
2023/03/01 05:00:19;;;;;;;12.23;6.88;;;;;;;-4.25;100.00;102065.63;6226397;28;20044;-86
2023/03/01 05:03:22;;;;;;;10.43;6.93;;;;;;;-4.27;100.00;102057.19;6223112;28;20081;-86
2023/03/01 05:06:24;;;;;;;11.07;6.03;;;;;;;-4.30;100.00;102052.94;6221321;28;20037;-86
2023/03/01 05:09:26;;;;;;;12.18;6.55;;;;;;;-4.25;100.00;102055.53;6228443;28;20041;-86
2023/03/01 05:12:28;;;;;;;13.15;6.82;;;;;;;-4.27;100.00;102054.66;6220097;28;20041;-86
2023/03/01 05:15:31;;;;;;;8.73;6.28;;;;;;;-4.32;100.00;102052.13;6227214;28;20048;-86
2023/03/01 05:18:33;;;;;;;8.60;5.45;;;;;;;-4.35;100.00;102047.91;6222696;28;20052;-87
2023/03/01 05:22:01;;;;;;;10.32;6.25;;;;;;;-4.31;100.00;102047.91;6231384;28;20073;-86
2023/03/01 05:25:00;;;;;;;10.32;6.28;;;;;;;-4.32;100.00;102044.53;6221044;28;20140;-86
2023/03/01 05:28:05;;;;;;;12.20;6.88;;;;;;;-4.34;100.00;102031.03;6232491;28;20045;-86
2023/03/01 05:31:09;;;;;;;9.65;5.88;;;;;;;-4.40;100.00;102036.88;6231062;28;20535;-86
2023/03/01 05:34:12;;;;;;;11.98;6.57;;;;;;;-4.45;100.00;102036.00;6215186;28;20138;-86
2023/03/01 05:37:14;;;;;;;10.82;6.25;;;;;;;-4.50;100.00;102037.66;6230950;28;20069;-86
2023/03/01 05:40:19;;;;;;;10.93;6.60;;;;;;;-4.51;100.00;102030.06;6226532;28;20072;-86
2023/03/01 05:43:21;;;;;;;11.43;6.65;;;;;;;-4.53;100.00;102036.78;6226456;28;20629;-86
2023/03/01 05:46:24;;;;;;;12.68;7.50;;;;;;;-4.57;100.00;102033.38;6213989;28;20137;-86
2023/03/01 05:49:25;;;;;;;12.18;7.35;;;;;;;-4.61;100.00;102032.53;6224770;28;20041;-86
2023/03/01 05:52:27;;;;;;;10.80;7.43;;;;;;;-4.61;100.00;102032.53;6231448;28;20097;-86
2023/03/01 05:55:30;;;;;;;10.88;6.85;;;;;;;-4.63;100.00;102041.75;6223573;28;20045;-86
2023/03/01 05:58:32;;;;;;;12.70;7.18;;;;;;;-4.64;100.00;102036.72;6213311;28;20515;-86
2023/03/01 06:01:36;;;;;;;12.85;7.50;;;;;;;-4.66;100.00;102034.16;6209421;28;20529;-86
2023/03/01 06:04:38;;;;;;;14.02;6.82;;;;;;;-4.65;100.00;102043.41;6220608;28;20125;-86
2023/03/01 06:07:40;;;;;;;13.30;7.10;;;;;;;-4.68;100.00;102038.34;6211707;28;20038;-86
2023/03/01 06:10:42;;;;;;;12.15;7.50;;;;;;;-4.66;100.00;102048.47;6228108;28;20049;-86
2023/03/01 06:13:44;;;;;;;13.45;6.90;;;;;;;-4.62;100.00;102047.66;6215489;28;20033;-86
2023/03/01 06:16:48;;;;;;;13.18;7.35;;;;;;;-4.59;100.00;102048.53;6227740;28;20045;-86
2023/03/01 06:19:50;;;;;;;12.45;8.35;;;;;;;-4.57;100.00;102040.97;6209664;28;20041;-86
2023/03/01 06:22:52;;;;;;;13.95;7.47;;;;;;;-4.63;100.00;102049.34;6223225;28;20045;-86
2023/03/01 06:25:54;;;;;;;13.98;8.18;;;;;;;-4.58;100.00;102045.16;6226172;28;20049;-86
2023/03/01 06:28:56;;;;;;;11.48;7.55;;;;;;;-4.59;100.00;102057.81;6223765;28;20042;-86
2023/03/01 06:31:57;;;;;;;13.32;7.93;;;;;;;-4.53;100.00;102045.22;6213138;28;20120;-86
2023/03/01 06:34:59;;;;;;;11.85;7.40;;;;;;;-4.44;100.00;102047.81;6212654;28;20404;-86
2023/03/01 06:38:03;;;;;;;11.55;7.07;;;;;;;-4.45;100.00;102051.16;6220542;28;20053;-86
2023/03/01 06:41:04;;;;;;;11.68;6.82;;;;;;;-4.48;100.00;102051.16;6237648;28;20044;-86
2023/03/01 06:44:06;;;;;;;12.63;6.30;;;;;;;-4.38;100.00;102049.53;6234954;28;20041;-86
2023/03/01 06:47:08;;;;;;;10.45;5.70;;;;;;;-4.33;100.00;102047.88;6230248;28;20140;-86
2023/03/01 06:50:10;;;;;;;15.00;9.80;;;;;;;-4.32;100.00;102047.06;6224723;28;20675;-86
2023/03/01 06:53:12;;;;;;;14.40;8.68;;;;;;;-4.28;100.00;102048.75;6222204;28;20498;-86
2023/03/01 06:56:14;;;;;;;12.48;8.32;;;;;;;-4.21;100.00;102050.50;6225811;28;20038;-86
2023/03/01 06:59:17;;;;;;;12.65;8.30;;;;;;;-4.18;100.00;102040.41;6224298;28;20052;-86
2023/03/01 07:02:19;;;;;;;11.48;7.35;;;;;;;-4.17;100.00;102046.34;6228863;28;20113;-87
2023/03/01 07:05:29;;;;;;;12.32;7.75;;;;;;;-4.12;100.00;102042.97;6226231;28;20049;-87
2023/03/01 07:08:31;;;;;;;13.77;8.40;;;;;;;-4.06;100.00;102052.28;6228682;28;20049;-86
2023/03/01 07:11:33;;;;;;;11.57;7.15;;;;;;;-4.03;100.00;102054.81;6229884;28;20042;-86
2023/03/01 07:14:34;;;;;;;10.70;6.72;;;;;;;-3.98;100.00;102052.31;6228695;28;20121;-86
2023/03/01 07:17:36;;;;;;;12.38;7.93;;;;;;;-3.98;100.00;102042.22;6225200;28;20037;-86
2023/03/01 07:20:38;;;;;;;13.55;7.38;;;;;;;-3.95;100.00;102037.16;6224515;28;20480;-87
2023/03/01 07:23:40;;;;;;;12.50;7.60;;;;;;;-3.91;100.00;102039.72;6231103;28;20522;-86
2023/03/01 07:26:42;;;;;;;14.43;7.90;;;;;;;-3.87;100.00;102038.06;6232005;28;20403;-86
2023/03/01 07:29:44;;;;;;;12.45;8.15;;;;;;;-3.81;100.00;102034.72;6228421;28;20047;-86
2023/03/01 07:32:45;;;;;;;13.02;8.25;;;;;;;-3.72;100.00;102033.06;6229830;28;20037;-86
2023/03/01 07:35:47;;;;;;;17.10;9.52;;;;;;;-3.67;100.00;102028.03;6233687;28;20586;-87
2023/03/01 07:38:49;;;;;;;18.23;10.32;;;;;;;-3.60;100.00;102023.84;6214924;28;20052;-87
2023/03/01 07:41:52;;;;;;;15.57;9.75;;;;;;;-3.55;100.00;102017.09;6226000;28;20048;-87
2023/03/01 07:44:56;;;;;;;18.88;11.00;;;;;;;-3.52;100.00;102015.44;6226754;28;20046;-87
2023/03/01 07:47:58;;;;;;;16.27;10.27;;;;;;;-3.49;100.00;102022.19;6226791;28;20076;-86
2023/03/01 07:51:00;;;;;;;16.73;10.25;;;;;;;-3.40;100.00;102013.78;6221868;28;20048;-87
2023/03/01 07:54:03;;;;;;;18.42;11.40;;;;;;;-3.32;100.00;102014.66;6228478;28;20049;-87
2023/03/01 07:57:05;;;;;;;22.55;12.20;;;;;;;-3.29;100.00;102012.97;6211062;28;20034;-87
2023/03/01 08:00:10;;;;;;;19.08;11.80;;;;;;;-3.18;100.00;102019.75;6229540;28;20041;-87
2023/03/01 08:03:12;;;;;;;18.45;13.10;;;;;;;-3.18;100.00;102018.06;6228727;28;20084;-87
2023/03/01 08:06:17;;;;;;;18.45;11.15;;;;;;;-3.13;100.00;102029.06;6226710;28;20041;-87
2023/03/01 08:09:18;;;;;;;15.98;10.52;;;;;;;-3.09;100.00;102018.06;6225568;28;20048;-87
2023/03/01 08:12:20;;;;;;;16.13;10.63;;;;;;;-3.05;100.00;102026.53;6230328;28;20397;-87
2023/03/01 08:15:22;;;;;;;17.63;11.00;;;;;;;-2.96;100.00;102021.47;6230329;28;20044;-87
2023/03/01 08:18:25;;;;;;;17.42;10.38;;;;;;;-2.89;100.00;102019.78;6225278;28;20539;-87
2023/03/01 08:21:26;;;;;;;16.83;10.40;;;;;;;-2.94;100.00;102022.31;6229565;28;20095;-87
2023/03/01 08:24:28;;;;;;;14.23;9.90;;;;;;;-2.88;100.00;102021.47;6222491;28;20041;-87
2023/03/01 08:27:30;;;;;;;16.65;10.73;;;;;;;-2.78;100.00;102027.38;6225711;28;20049;-87
2023/03/01 08:30:32;;;;;;;20.33;12.68;;;;;;;-2.70;100.00;102026.56;6227245;28;20049;-87
2023/03/01 08:33:34;;;;;;;19.83;11.25;;;;;;;-2.62;100.00;102021.50;6218145;28;20029;-87
2023/03/01 08:36:44;;;;;;;22.77;12.25;;;;;;;-2.56;100.00;102026.53;6232619;28;20052;-87
2023/03/01 08:39:49;;;;;;;17.47;10.23;;;;;;;-2.50;100.00;102020.66;6230159;28;20116;-87
2023/03/01 08:42:51;;;;;;;16.40;9.65;;;;;;;-2.36;100.00;102015.53;6232292;28;20079;-87
2023/03/01 08:45:52;;;;;;;17.42;10.02;;;;;;;-2.29;100.00;102022.31;6221127;28;20415;-87
2023/03/01 08:48:55;;;;;;;18.08;9.27;;;;;;;-2.23;100.00;102018.06;6234089;28;20349;-87
2023/03/01 08:51:57;;;;;;;16.52;8.90;;;;;;;-2.18;100.00;102023.16;6221525;28;20038;-87
2023/03/01 08:55:01;;;;;;;13.35;8.68;;;;;;;-2.18;100.00;102025.69;6233459;28;20046;-87
2023/03/01 08:58:03;;;;;;;11.23;7.40;;;;;;;-2.16;100.00;102024.00;6228157;28;20124;-87
2023/03/01 09:01:10;;;;;;;12.10;7.97;;;;;;;-2.12;100.00;102022.28;6217519;28;20503;-87
2023/03/01 09:04:14;;;;;;;13.90;7.82;;;;;;;-2.03;100.00;102023.09;6229879;28;20088;-87
2023/03/01 09:07:16;;;;;;;17.20;9.35;;;;;;;-1.95;100.00;102025.63;6232190;28;20157;-87
2023/03/01 09:10:18;;;;;;;15.10;8.30;;;;;;;-1.88;100.00;102023.91;6234560;28;20045;-87
2023/03/01 09:13:20;;;;;;;13.55;8.50;;;;;;;-1.81;100.00;102021.34;6230956;28;20026;-88
2023/03/01 09:16:23;;;;;;;15.00;7.80;;;;;;;-1.71;100.00;102018.75;6230791;28;20450;-88
2023/03/01 09:19:25;;;;;;;13.85;7.55;;;;;;;-1.64;100.00;102021.28;6233061;28;20415;-88
2023/03/01 09:22:33;;;;;;;12.50;7.30;;;;;;;-1.56;100.00;102018.72;6228172;28;20112;-88
2023/03/01 09:25:36;;;;;;;10.82;7.05;;;;;;;-1.48;100.00;102011.06;6233208;28;20049;-88
2023/03/01 09:28:39;;;;;;;12.50;7.15;;;;;;;-1.39;100.00;102016.06;6231032;28;20041;-88
2023/03/01 09:31:42;;;;;;;14.32;7.97;;;;;;;-1.33;100.00;102008.44;6227679;28;20044;-88
2023/03/01 09:38:04;;;;;;;14.35;9.05;;;;;;;-1.19;100.00;102001.59;6230138;28;20522;-88
2023/03/01 09:41:43;;;;;;;15.63;7.80;;;;;;;-1.05;100.00;102006.56;6225675;28;20348;-88
2023/03/01 09:44:54;;;;;;;13.55;7.10;;;;;;;-0.93;100.00;102010.72;6226918;28;20040;-88
2023/03/01 09:47:57;;;;;;;14.25;7.95;;;;;;;-0.79;100.00;102001.28;6229471;28;20496;-88
2023/03/01 09:51:05;;;;;;;15.77;6.85;;;;;;;-0.64;100.00;101995.25;6226189;28;20102;-88
2023/03/01 09:54:10;;;;;;;14.43;7.97;;;;;;;-0.54;100.00;102001.09;6225058;28;20041;-88
2023/03/01 09:57:26;;;;;;;14.70;7.75;;;;;;;-0.45;100.00;101986.59;6212485;28;20049;-88
2023/03/01 10:00:43;;;;;;;13.98;7.40;;;;;;;-0.33;100.00;101990.69;6226378;28;20072;-88
2023/03/01 10:04:06;;;;;;;14.18;7.05;;;;;;;-0.28;100.00;101993.19;6225126;28;20807;-88
2023/03/01 10:07:35;;;;;;;13.10;7.60;;;;;;;-0.16;100.00;101997.31;6223926;28;20033;-88
2023/03/01 10:10:44;;;;;;;12.13;7.22;;;;;;;-0.09;100.00;101992.16;6223893;28;20046;-88
2023/03/01 10:13:54;;;;;;;11.32;4.90;;;;;;;0.01;100.00;102000.53;6227061;28;20029;-88
2023/03/01 10:17:11;;;;;;;9.15;5.03;;;;;;;0.12;100.00;101988.50;6229619;28;20037;-88
2023/03/01 10:20:26;;;;;;;8.75;4.82;;;;;;;0.21;100.00;101978.22;6223468;28;20087;-88
2023/03/01 10:23:31;;;;;;;9.73;5.07;;;;;;;0.40;100.00;101983.09;6224851;28;20072;-88
2023/03/01 10:26:57;;;;;;;10.00;5.20;;;;;;;0.46;100.00;101969.41;6224633;28;20046;-88
2023/03/01 10:30:11;;;;;;;15.18;5.47;;;;;;;0.57;100.00;101970.09;6215906;28;20080;-88
2023/03/01 10:33:30;;;;;;;10.75;4.50;;;;;;;0.71;100.00;101975.84;6224550;28;20046;-88
2023/03/01 10:36:33;;;;;;;9.02;4.50;;;;;;;0.82;100.00;101970.56;6224317;28;20985;-88
2023/03/01 10:39:35;;;;;;;9.23;4.72;;;;;;;0.85;100.00;101966.28;6217417;28;20037;-88
2023/03/01 10:42:48;;;;;;;8.45;4.57;;;;;;;0.95;100.00;101955.97;6226619;28;20145;-88
2023/03/01 10:45:50;;;;;;;10.85;4.68;;;;;;;1.09;100.00;101954.00;6224139;28;20341;-88
2023/03/01 10:49:19;;;;;;;7.50;4.30;;;;;;;1.19;100.00;101952.16;6226968;28;20041;-88
2023/03/01 10:52:25;;;;;;;8.25;4.45;;;;;;;1.23;100.00;101946.13;6228624;28;20042;-88
2023/03/01 10:55:34;;;;;;;6.57;4.15;;;;;;;1.34;100.00;101949.31;6221153;28;20124;-88
2023/03/01 10:58:38;;;;;;;7.30;4.35;;;;;;;1.51;100.00;101957.53;6218856;28;20491;-88
2023/03/01 11:01:40;;;;;;;10.20;4.47;;;;;;;1.60;100.00;101953.16;6232924;28;20151;-87
2023/03/01 11:05:16;;;;;;;9.07;4.63;;;;;;;1.77;100.00;101946.00;6220380;28;20495;-87
2023/03/01 11:08:36;;;;;;;8.77;4.40;;;;;;;1.79;100.00;101943.41;6213677;28;20246;-88
2023/03/01 11:11:38;;;;;;;;;;;;;;;1.83;100.00;101934.81;6228079;28;20045;-87
2023/03/01 11:14:48;;;;;;;6.93;4.22;;;;;;;1.91;100.00;101941.47;6230283;28;20372;-87
2023/03/01 11:17:50;;;;;;;7.18;4.55;;;;;;;2.01;100.00;101931.06;6222314;28;20049;-87
2023/03/01 11:21:02;;;;;;;;;;;;;;;2.10;100.00;101938.53;6222878;28;20054;-87
2023/03/01 11:24:09;;;;;;;5.97;3.50;;;;;;;2.13;100.00;101931.63;6212138;28;20099;-87
2023/03/01 11:27:43;;;;;;;7.60;4.38;;;;;;;2.21;100.00;101928.94;6233193;28;20052;-87
2023/03/01 11:31:12;;;;;;;6.30;4.55;;;;;;;2.32;100.00;101926.16;6220893;28;20103;-87
2023/03/01 11:34:23;;;;;;;9.77;3.80;;;;;;;2.41;100.00;101927.66;6225662;28;20290;-87
2023/03/01 11:37:32;;;;;;;10.23;4.15;;;;;;;2.48;100.00;101922.34;6233821;28;20072;-87
2023/03/01 11:40:40;;;;;;;6.30;3.78;;;;;;;2.50;100.00;101912.13;6228795;28;20052;-87
2023/03/01 11:43:48;;;;;;;7.13;4.13;;;;;;;2.56;100.00;101907.72;6232722;28;20052;-87
2023/03/01 11:47:22;;;;;;;6.60;3.45;;;;;;;2.73;100.00;101901.34;6223210;28;20041;-87
2023/03/01 11:50:46;;;;;;;6.05;3.70;;;;;;;2.86;100.00;101912.09;6231940;28;20087;-87
2023/03/01 11:54:20;;;;;;;5.60;3.35;;;;;;;2.87;100.00;101899.28;6230877;28;20586;-87
2023/03/01 11:57:47;;;;;;;7.78;3.60;;;;;;;2.93;100.00;101898.28;6225810;28;20038;-87
2023/03/01 12:01:10;;;;;;;5.82;3.67;;;;;;;2.98;100.00;101893.91;6234625;28;20090;-87
2023/03/01 12:04:46;;;;;;;6.32;3.10;;;;;;;3.01;100.00;101897.25;6231230;28;20056;-87
2023/03/01 12:08:16;;;;;;;5.22;3.20;;;;;;;3.01;100.00;101894.69;6230920;28;20566;-88
2023/03/01 12:11:52;;;;;;;6.53;3.42;;;;;;;3.04;100.00;101896.31;6232929;28;20060;-88
2023/03/01 12:15:23;;;;;;;5.43;3.38;;;;;;;3.10;100.00;101887.66;6230316;28;20054;-87
2023/03/01 12:18:46;;;;;;;4.18;2.90;;;;;;;3.12;100.00;101881.59;6229803;28;20048;-87
2023/03/01 12:22:06;;;;;;;6.07;3.33;;;;;;;3.21;100.00;101880.53;6226870;28;20045;-88
2023/03/01 12:25:20;;;;;;;5.25;3.47;;;;;;;3.14;100.00;101876.47;6231144;28;20056;-88
2023/03/01 12:28:36;;;;;;;6.63;4.45;;;;;;;3.15;100.00;101863.63;6226399;28;20084;-88
2023/03/01 12:32:03;;;;;;;5.00;3.05;;;;;;;3.26;100.00;101859.94;6234863;28;20487;-88
2023/03/01 12:35:58;;;;;;;8.50;4.43;;;;;;;3.26;100.00;101850.56;6234084;28;20109;-88
2023/03/01 12:39:26;;;;;;;5.28;3.10;;;;;;;3.29;100.00;101844.50;6170524;28;20049;-88
2023/03/01 12:42:52;;;;;;;5.70;3.00;;;;;;;3.34;100.00;101850.34;6161236;28;20496;-88
2023/03/01 12:46:25;;;;;;;6.47;3.20;;;;;;;3.47;100.00;101838.03;6179614;28;20046;-88
2023/03/01 12:49:33;;;;;;;5.00;3.25;;;;;;;3.55;100.00;101839.50;6177613;28;20057;-88
2023/03/01 12:52:56;;;;;;;5.13;3.67;;;;;;;3.62;100.00;101832.47;6159324;28;20451;-87
2023/03/01 12:56:12;;;;;;;7.30;3.85;;;;;;;3.78;100.00;101825.19;6175473;28;20061;-87
2023/03/01 12:59:29;;;;;;;4.65;2.92;;;;;;;3.87;100.00;101823.19;6160394;28;20558;-87
2023/03/01 13:02:48;;;;;;;5.32;3.55;;;;;;;3.99;100.00;101824.53;6175384;28;20185;-87
2023/03/01 13:06:12;;;;;;;6.93;3.38;;;;;;;4.12;100.00;101814.75;6177971;28;20046;-87
2023/03/01 13:09:39;;;;;;;5.13;3.20;;;;;;;4.18;100.00;101818.88;6182627;28;20772;-87
2023/03/01 13:12:53;;;;;;;4.65;2.80;;;;;;;4.21;100.00;101811.06;6217514;28;20121;-87
2023/03/01 13:15:55;;;;;;;7.30;3.60;;;;;;;4.24;100.00;101823.78;6211513;28;20041;-87
2023/03/01 13:19:15;;;;;;;4.88;3.67;;;;;;;4.31;100.00;101812.44;6216384;28;20626;-87
2023/03/01 13:22:32;;;;;;;5.00;3.10;;;;;;;4.36;100.00;101802.88;6218416;28;20530;-87
2023/03/01 13:25:58;;;;;;;6.03;3.58;;;;;;;4.47;100.00;101799.97;6223302;28;20049;-88
2023/03/01 13:29:01;;;;;;;5.38;3.42;;;;;;;4.52;100.00;101796.38;6234634;28;20047;-87
2023/03/01 13:32:04;;;;;;;4.82;3.03;;;;;;;4.68;100.00;101795.88;6215376;28;20045;-88
2023/03/01 13:35:16;;;;;;;5.70;3.55;;;;;;;4.70;100.00;101789.78;6216152;28;20107;-88
2023/03/01 13:38:47;;;;;;;3.58;2.33;;;;;;;4.78;100.00;101792.09;6229510;28;20038;-88
2023/03/01 13:41:52;;;;;;;4.47;2.72;;;;;;;4.87;100.00;101785.78;6226838;28;20049;-87
2023/03/01 13:44:54;;;;;;;4.20;3.17;;;;;;;4.92;100.00;101774.50;6221700;28;21374;-88
2023/03/01 13:48:01;;;;;;;5.07;2.50;;;;;;;5.07;100.00;101774.81;6231614;28;20065;-88
2023/03/01 13:51:10;;;;;;;4.45;2.80;;;;;;;5.21;100.00;101775.16;6211589;28;20045;-88
2023/03/01 13:54:14;;;;;;;5.63;2.78;;;;;;;5.25;100.00;101771.59;6230603;28;20511;-88
2023/03/01 13:57:24;;;;;;;5.22;2.72;;;;;;;5.35;100.00;101764.41;6223788;28;20045;-88
2023/03/01 14:00:40;;;;;;;4.28;2.75;;;;;;;5.45;100.00;101772.59;6225046;28;20037;-88
2023/03/01 14:03:42;;;;;;;4.53;2.97;;;;;;;5.49;100.00;101769.00;6225133;28;20049;-88
2023/03/01 14:06:44;;;;;;;5.55;2.70;;;;;;;5.56;100.00;101766.16;6219124;28;20046;-88
2023/03/01 14:09:52;;;;;;;4.82;2.78;;;;;;;5.50;100.00;101757.84;6212246;28;20056;-88
2023/03/01 14:13:23;;;;;;;4.43;2.88;;;;;;;5.55;100.00;101758.53;6225022;28;20034;-88
2023/03/01 14:16:57;;;;;;;3.55;3.08;;;;;;;5.52;100.00;101753.50;6228596;28;20060;-88
2023/03/01 14:20:04;;;;;;;5.50;2.83;;;;;;;5.56;100.00;101755.03;6220655;28;20041;-88
2023/03/01 14:23:13;;;;;;;4.07;3.03;;;;;;;5.57;100.00;101761.88;6215812;28;20398;-88
2023/03/01 14:26:21;;;;;;;5.45;2.55;;;;;;;5.58;100.00;101751.53;6224447;28;20135;-88
2023/03/01 14:29:28;;;;;;;6.90;2.72;;;;;;;5.49;100.00;101744.19;6215150;28;20446;-88